sensor_id;sensor_type;location;lat;lon;timestamp;P1;durP1;ratioP1;P2;durP2;ratioP2
5959;SDS011;3006;50.956;7.002;2023-03-01T00:01:26;8.40;;;7.27;;
5959;SDS011;3006;50.956;7.002;2023-03-01T00:03:56;11.07;;;6.97;;
5959;SDS011;3006;50.956;7.002;2023-03-01T00:06:27;8.90;;;7.03;;
5959;SDS011;3006;50.956;7.002;2023-03-01T00:08:55;9.50;;;6.57;;
5959;SDS011;3006;50.956;7.002;2023-03-01T00:11:24;10.00;;;6.60;;
5959;SDS011;3006;50.956;7.002;2023-03-01T00:13:54;11.83;;;7.13;;
5959;SDS011;3006;50.956;7.002;2023-03-01T00:16:24;10.33;;;8.17;;
5959;SDS011;3006;50.956;7.002;2023-03-01T00:18:54;8.93;;;7.03;;
5959;SDS011;3006;50.956;7.002;2023-03-01T00:21:23;10.00;;;6.73;;
5959;SDS011;3006;50.956;7.002;2023-03-01T00:23:54;13.80;;;8.77;;
5959;SDS011;3006;50.956;7.002;2023-03-01T00:26:23;16.90;;;8.23;;
5959;SDS011;3006;50.956;7.002;2023-03-01T00:28:52;11.07;;;7.60;;
5959;SDS011;3006;50.956;7.002;2023-03-01T00:31:22;10.53;;;7.40;;
5959;SDS011;3006;50.956;7.002;2023-03-01T00:33:52;11.30;;;7.77;;
5959;SDS011;3006;50.956;7.002;2023-03-01T00:36:23;9.17;;;7.77;;
5959;SDS011;3006;50.956;7.002;2023-03-01T00:38:54;10.63;;;7.20;;
5959;SDS011;3006;50.956;7.002;2023-03-01T00:41:23;11.90;;;7.67;;
5959;SDS011;3006;50.956;7.002;2023-03-01T00:43:53;12.53;;;7.83;;
5959;SDS011;3006;50.956;7.002;2023-03-01T00:46:22;12.47;;;8.47;;
5959;SDS011;3006;50.956;7.002;2023-03-01T00:48:52;16.20;;;8.53;;
5959;SDS011;3006;50.956;7.002;2023-03-01T00:51:22;12.33;;;8.30;;
5959;SDS011;3006;50.956;7.002;2023-03-01T00:53:52;13.13;;;7.80;;
5959;SDS011;3006;50.956;7.002;2023-03-01T00:56:22;12.83;;;8.07;;
5959;SDS011;3006;50.956;7.002;2023-03-01T00:58:51;11.27;;;7.43;;
5959;SDS011;3006;50.956;7.002;2023-03-01T01:01:20;12.23;;;7.30;;
5959;SDS011;3006;50.956;7.002;2023-03-01T01:03:51;10.63;;;7.97;;
5959;SDS011;3006;50.956;7.002;2023-03-01T01:06:21;7.90;;;7.10;;
5959;SDS011;3006;50.956;7.002;2023-03-01T01:08:50;9.10;;;6.90;;
5959;SDS011;3006;50.956;7.002;2023-03-01T01:11:20;10.87;;;7.13;;
5959;SDS011;3006;50.956;7.002;2023-03-01T01:13:50;10.00;;;6.87;;
5959;SDS011;3006;50.956;7.002;2023-03-01T01:16:19;14.23;;;7.20;;
5959;SDS011;3006;50.956;7.002;2023-03-01T01:18:48;9.97;;;6.73;;
5959;SDS011;3006;50.956;7.002;2023-03-01T01:21:17;10.30;;;6.57;;
5959;SDS011;3006;50.956;7.002;2023-03-01T01:23:47;11.17;;;8.00;;
5959;SDS011;3006;50.956;7.002;2023-03-01T01:26:16;10.43;;;7.13;;
5959;SDS011;3006;50.956;7.002;2023-03-01T01:28:45;8.20;;;6.33;;
5959;SDS011;3006;50.956;7.002;2023-03-01T01:31:15;9.97;;;6.70;;
5959;SDS011;3006;50.956;7.002;2023-03-01T01:33:45;10.10;;;7.60;;
5959;SDS011;3006;50.956;7.002;2023-03-01T01:36:13;10.97;;;7.57;;
5959;SDS011;3006;50.956;7.002;2023-03-01T01:38:41;9.23;;;6.97;;
5959;SDS011;3006;50.956;7.002;2023-03-01T01:41:10;12.03;;;7.13;;
5959;SDS011;3006;50.956;7.002;2023-03-01T01:43:39;11.53;;;7.73;;
5959;SDS011;3006;50.956;7.002;2023-03-01T01:46:12;9.63;;;7.23;;
5959;SDS011;3006;50.956;7.002;2023-03-01T01:48:50;12.07;;;7.23;;
5959;SDS011;3006;50.956;7.002;2023-03-01T01:51:23;12.97;;;6.77;;
5959;SDS011;3006;50.956;7.002;2023-03-01T01:53:56;11.23;;;7.10;;
5959;SDS011;3006;50.956;7.002;2023-03-01T01:56:28;10.17;;;7.93;;
5959;SDS011;3006;50.956;7.002;2023-03-01T01:58:57;8.73;;;7.63;;
5959;SDS011;3006;50.956;7.002;2023-03-01T02:01:27;11.87;;;7.37;;
5959;SDS011;3006;50.956;7.002;2023-03-01T02:03:55;13.30;;;7.03;;
5959;SDS011;3006;50.956;7.002;2023-03-01T02:06:26;14.77;;;8.60;;
5959;SDS011;3006;50.956;7.002;2023-03-01T02:08:59;10.03;;;7.10;;
5959;SDS011;3006;50.956;7.002;2023-03-01T02:11:30;10.00;;;7.67;;
5959;SDS011;3006;50.956;7.002;2023-03-01T02:13:59;11.53;;;7.40;;
5959;SDS011;3006;50.956;7.002;2023-03-01T02:16:29;10.17;;;7.37;;
5959;SDS011;3006;50.956;7.002;2023-03-01T02:18:58;10.17;;;7.10;;
5959;SDS011;3006;50.956;7.002;2023-03-01T02:21:30;10.43;;;6.53;;
5959;SDS011;3006;50.956;7.002;2023-03-01T02:24:07;9.73;;;6.90;;
5959;SDS011;3006;50.956;7.002;2023-03-01T02:26:48;7.57;;;6.80;;
5959;SDS011;3006;50.956;7.002;2023-03-01T02:29:20;10.60;;;7.27;;
5959;SDS011;3006;50.956;7.002;2023-03-01T02:31:48;9.30;;;6.63;;
5959;SDS011;3006;50.956;7.002;2023-03-01T02:34:19;11.90;;;7.00;;
5959;SDS011;3006;50.956;7.002;2023-03-01T02:36:53;7.90;;;7.10;;
5959;SDS011;3006;50.956;7.002;2023-03-01T02:39:25;10.03;;;7.10;;
5959;SDS011;3006;50.956;7.002;2023-03-01T02:41:58;10.60;;;7.00;;
5959;SDS011;3006;50.956;7.002;2023-03-01T02:44:30;10.30;;;7.03;;
5959;SDS011;3006;50.956;7.002;2023-03-01T02:46:58;8.23;;;6.80;;
5959;SDS011;3006;50.956;7.002;2023-03-01T02:49:30;9.17;;;6.90;;
5959;SDS011;3006;50.956;7.002;2023-03-01T02:52:14;8.67;;;7.20;;
5959;SDS011;3006;50.956;7.002;2023-03-01T02:54:59;9.70;;;7.40;;
5959;SDS011;3006;50.956;7.002;2023-03-01T02:57:31;9.70;;;7.00;;
5959;SDS011;3006;50.956;7.002;2023-03-01T03:00:03;12.90;;;7.27;;
5959;SDS011;3006;50.956;7.002;2023-03-01T03:02:36;9.23;;;7.30;;
5959;SDS011;3006;50.956;7.002;2023-03-01T03:05:09;9.40;;;6.90;;
5959;SDS011;3006;50.956;7.002;2023-03-01T03:07:40;12.80;;;8.00;;
5959;SDS011;3006;50.956;7.002;2023-03-01T03:10:11;10.73;;;7.50;;
5959;SDS011;3006;50.956;7.002;2023-03-01T03:12:41;13.47;;;7.60;;
5959;SDS011;3006;50.956;7.002;2023-03-01T03:15:11;8.87;;;7.37;;
5959;SDS011;3006;50.956;7.002;2023-03-01T03:17:40;8.40;;;7.23;;
5959;SDS011;3006;50.956;7.002;2023-03-01T03:20:12;8.83;;;7.50;;
5959;SDS011;3006;50.956;7.002;2023-03-01T03:22:45;11.93;;;8.00;;
5959;SDS011;3006;50.956;7.002;2023-03-01T03:25:15;10.23;;;7.80;;
5959;SDS011;3006;50.956;7.002;2023-03-01T03:27:45;11.07;;;7.77;;
5959;SDS011;3006;50.956;7.002;2023-03-01T03:30:17;10.37;;;6.77;;
5959;SDS011;3006;50.956;7.002;2023-03-01T03:32:47;10.10;;;6.60;;
5959;SDS011;3006;50.956;7.002;2023-03-01T03:35:19;8.60;;;7.00;;
5959;SDS011;3006;50.956;7.002;2023-03-01T03:37:48;9.80;;;7.57;;
5959;SDS011;3006;50.956;7.002;2023-03-01T03:40:33;9.70;;;8.17;;
5959;SDS011;3006;50.956;7.002;2023-03-01T03:43:02;14.03;;;10.33;;
5959;SDS011;3006;50.956;7.002;2023-03-01T03:45:32;14.97;;;11.77;;
5959;SDS011;3006;50.956;7.002;2023-03-01T03:48:01;17.60;;;13.43;;
5959;SDS011;3006;50.956;7.002;2023-03-01T03:50:31;12.80;;;10.80;;
5959;SDS011;3006;50.956;7.002;2023-03-01T03:53:00;13.40;;;9.40;;
5959;SDS011;3006;50.956;7.002;2023-03-01T03:55:30;11.20;;;8.80;;
5959;SDS011;3006;50.956;7.002;2023-03-01T03:58:00;12.07;;;8.83;;
5959;SDS011;3006;50.956;7.002;2023-03-01T04:00:35;10.67;;;8.47;;
5959;SDS011;3006;50.956;7.002;2023-03-01T04:03:04;11.83;;;8.70;;
5959;SDS011;3006;50.956;7.002;2023-03-01T04:05:32;12.30;;;8.90;;
5959;SDS011;3006;50.956;7.002;2023-03-01T04:08:01;9.97;;;7.63;;
5959;SDS011;3006;50.956;7.002;2023-03-01T04:10:29;11.47;;;8.23;;
5959;SDS011;3006;50.956;7.002;2023-03-01T04:12:59;10.73;;;7.90;;
5959;SDS011;3006;50.956;7.002;2023-03-01T04:15:27;11.03;;;8.53;;
5959;SDS011;3006;50.956;7.002;2023-03-01T04:17:57;11.13;;;8.60;;
5959;SDS011;3006;50.956;7.002;2023-03-01T04:20:26;47.40;;;29.50;;
5959;SDS011;3006;50.956;7.002;2023-03-01T04:22:59;27.50;;;16.30;;
5959;SDS011;3006;50.956;7.002;2023-03-01T04:25:37;13.67;;;9.53;;
5959;SDS011;3006;50.956;7.002;2023-03-01T04:28:06;13.00;;;8.50;;
5959;SDS011;3006;50.956;7.002;2023-03-01T04:30:34;12.37;;;8.17;;
5959;SDS011;3006;50.956;7.002;2023-03-01T04:33:05;11.37;;;7.87;;
5959;SDS011;3006;50.956;7.002;2023-03-01T04:35:34;12.60;;;8.83;;
5959;SDS011;3006;50.956;7.002;2023-03-01T04:38:04;11.20;;;8.73;;
5959;SDS011;3006;50.956;7.002;2023-03-01T04:40:32;13.03;;;9.10;;
5959;SDS011;3006;50.956;7.002;2023-03-01T04:43:01;12.80;;;9.13;;
5959;SDS011;3006;50.956;7.002;2023-03-01T04:45:31;19.83;;;8.57;;
5959;SDS011;3006;50.956;7.002;2023-03-01T04:48:01;11.87;;;9.17;;
5959;SDS011;3006;50.956;7.002;2023-03-01T04:50:32;11.90;;;8.30;;
5959;SDS011;3006;50.956;7.002;2023-03-01T04:53:00;13.63;;;8.90;;
5959;SDS011;3006;50.956;7.002;2023-03-01T04:55:28;17.00;;;12.40;;
5959;SDS011;3006;50.956;7.002;2023-03-01T04:57:57;13.60;;;9.27;;
5959;SDS011;3006;50.956;7.002;2023-03-01T05:00:26;12.97;;;9.13;;
5959;SDS011;3006;50.956;7.002;2023-03-01T05:02:54;12.40;;;8.40;;
5959;SDS011;3006;50.956;7.002;2023-03-01T05:05:25;13.23;;;8.60;;
5959;SDS011;3006;50.956;7.002;2023-03-01T05:07:57;12.80;;;9.30;;
5959;SDS011;3006;50.956;7.002;2023-03-01T05:10:27;12.30;;;9.20;;
5959;SDS011;3006;50.956;7.002;2023-03-01T05:12:59;12.40;;;8.97;;
5959;SDS011;3006;50.956;7.002;2023-03-01T05:15:29;11.53;;;8.40;;
5959;SDS011;3006;50.956;7.002;2023-03-01T05:17:59;14.50;;;8.60;;
5959;SDS011;3006;50.956;7.002;2023-03-01T05:20:27;11.00;;;8.70;;
5959;SDS011;3006;50.956;7.002;2023-03-01T05:22:58;13.00;;;8.60;;
5959;SDS011;3006;50.956;7.002;2023-03-01T05:25:34;18.00;;;9.43;;
5959;SDS011;3006;50.956;7.002;2023-03-01T05:28:07;20.60;;;9.10;;
5959;SDS011;3006;50.956;7.002;2023-03-01T05:30:38;15.13;;;10.00;;
5959;SDS011;3006;50.956;7.002;2023-03-01T05:33:07;14.53;;;10.40;;
5959;SDS011;3006;50.956;7.002;2023-03-01T05:35:40;13.10;;;10.03;;
5959;SDS011;3006;50.956;7.002;2023-03-01T05:38:10;15.07;;;9.43;;
5959;SDS011;3006;50.956;7.002;2023-03-01T05:40:39;14.93;;;10.37;;
5959;SDS011;3006;50.956;7.002;2023-03-01T05:43:08;18.50;;;9.70;;
5959;SDS011;3006;50.956;7.002;2023-03-01T05:45:37;15.40;;;9.50;;
5959;SDS011;3006;50.956;7.002;2023-03-01T05:48:07;14.30;;;9.97;;
5959;SDS011;3006;50.956;7.002;2023-03-01T05:50:37;15.00;;;9.90;;
5959;SDS011;3006;50.956;7.002;2023-03-01T05:53:08;14.33;;;10.03;;
5959;SDS011;3006;50.956;7.002;2023-03-01T05:55:39;12.90;;;10.03;;
5959;SDS011;3006;50.956;7.002;2023-03-01T05:58:09;14.73;;;9.87;;
5959;SDS011;3006;50.956;7.002;2023-03-01T06:00:40;20.43;;;10.17;;
5959;SDS011;3006;50.956;7.002;2023-03-01T06:03:09;13.30;;;10.17;;
5959;SDS011;3006;50.956;7.002;2023-03-01T06:05:40;16.27;;;9.73;;
5959;SDS011;3006;50.956;7.002;2023-03-01T06:08:10;13.83;;;9.20;;
5959;SDS011;3006;50.956;7.002;2023-03-01T06:10:40;18.13;;;9.97;;
5959;SDS011;3006;50.956;7.002;2023-03-01T06:13:08;15.53;;;9.80;;
5959;SDS011;3006;50.956;7.002;2023-03-01T06:15:36;15.60;;;9.40;;
5959;SDS011;3006;50.956;7.002;2023-03-01T06:18:04;18.10;;;9.83;;
5959;SDS011;3006;50.956;7.002;2023-03-01T06:20:32;18.70;;;10.90;;
5959;SDS011;3006;50.956;7.002;2023-03-01T06:23:01;13.10;;;9.57;;
5959;SDS011;3006;50.956;7.002;2023-03-01T06:25:31;15.33;;;11.03;;
5959;SDS011;3006;50.956;7.002;2023-03-01T06:28:00;28.77;;;12.00;;
5959;SDS011;3006;50.956;7.002;2023-03-01T06:30:28;23.37;;;13.37;;
5959;SDS011;3006;50.956;7.002;2023-03-01T06:32:56;27.57;;;12.43;;
5959;SDS011;3006;50.956;7.002;2023-03-01T06:35:27;25.07;;;14.00;;
5959;SDS011;3006;50.956;7.002;2023-03-01T06:37:57;22.27;;;13.40;;
5959;SDS011;3006;50.956;7.002;2023-03-01T06:40:26;20.60;;;13.20;;
5959;SDS011;3006;50.956;7.002;2023-03-01T06:42:56;23.93;;;12.57;;
5959;SDS011;3006;50.956;7.002;2023-03-01T06:45:25;20.90;;;12.47;;
5959;SDS011;3006;50.956;7.002;2023-03-01T06:48:00;18.97;;;12.40;;
5959;SDS011;3006;50.956;7.002;2023-03-01T06:50:29;26.67;;;14.10;;
5959;SDS011;3006;50.956;7.002;2023-03-01T06:52:58;23.60;;;12.10;;
5959;SDS011;3006;50.956;7.002;2023-03-01T06:55:26;25.83;;;13.13;;
5959;SDS011;3006;50.956;7.002;2023-03-01T06:57:55;24.97;;;12.80;;
5959;SDS011;3006;50.956;7.002;2023-03-01T07:00:25;27.83;;;14.00;;
5959;SDS011;3006;50.956;7.002;2023-03-01T07:02:54;18.53;;;12.70;;
5959;SDS011;3006;50.956;7.002;2023-03-01T07:05:25;19.23;;;11.30;;
5959;SDS011;3006;50.956;7.002;2023-03-01T07:07:53;17.57;;;12.50;;
5959;SDS011;3006;50.956;7.002;2023-03-01T07:10:22;25.07;;;12.67;;
5959;SDS011;3006;50.956;7.002;2023-03-01T07:12:50;20.67;;;12.23;;
5959;SDS011;3006;50.956;7.002;2023-03-01T07:15:23;16.43;;;12.10;;
5959;SDS011;3006;50.956;7.002;2023-03-01T07:17:52;21.47;;;12.17;;
5959;SDS011;3006;50.956;7.002;2023-03-01T07:20:21;20.97;;;13.07;;
5959;SDS011;3006;50.956;7.002;2023-03-01T07:22:51;17.03;;;11.57;;
5959;SDS011;3006;50.956;7.002;2023-03-01T07:25:19;15.23;;;11.53;;
5959;SDS011;3006;50.956;7.002;2023-03-01T07:27:49;21.13;;;12.40;;
5959;SDS011;3006;50.956;7.002;2023-03-01T07:30:18;16.40;;;11.30;;
5959;SDS011;3006;50.956;7.002;2023-03-01T07:32:48;18.37;;;11.63;;
5959;SDS011;3006;50.956;7.002;2023-03-01T07:35:16;15.83;;;11.10;;
5959;SDS011;3006;50.956;7.002;2023-03-01T07:37:45;15.77;;;11.03;;
5959;SDS011;3006;50.956;7.002;2023-03-01T07:40:13;16.90;;;12.40;;
5959;SDS011;3006;50.956;7.002;2023-03-01T07:42:41;19.97;;;11.70;;
5959;SDS011;3006;50.956;7.002;2023-03-01T07:45:09;15.50;;;11.80;;
5959;SDS011;3006;50.956;7.002;2023-03-01T07:47:39;17.37;;;11.70;;
5959;SDS011;3006;50.956;7.002;2023-03-01T07:50:10;15.63;;;12.03;;
5959;SDS011;3006;50.956;7.002;2023-03-01T07:52:39;16.63;;;10.97;;
5959;SDS011;3006;50.956;7.002;2023-03-01T07:55:08;17.13;;;12.30;;
5959;SDS011;3006;50.956;7.002;2023-03-01T07:57:36;16.17;;;11.83;;
5959;SDS011;3006;50.956;7.002;2023-03-01T08:00:05;14.27;;;11.47;;
5959;SDS011;3006;50.956;7.002;2023-03-01T08:02:43;14.17;;;11.90;;
5959;SDS011;3006;50.956;7.002;2023-03-01T08:05:13;17.50;;;12.60;;
5959;SDS011;3006;50.956;7.002;2023-03-01T08:07:41;17.47;;;12.40;;
5959;SDS011;3006;50.956;7.002;2023-03-01T08:10:09;17.20;;;11.77;;
5959;SDS011;3006;50.956;7.002;2023-03-01T08:12:38;16.90;;;12.50;;
5959;SDS011;3006;50.956;7.002;2023-03-01T08:15:07;15.53;;;11.93;;
5959;SDS011;3006;50.956;7.002;2023-03-01T08:17:35;16.00;;;11.70;;
5959;SDS011;3006;50.956;7.002;2023-03-01T08:20:04;25.30;;;12.40;;
5959;SDS011;3006;50.956;7.002;2023-03-01T08:22:34;21.70;;;13.60;;
5959;SDS011;3006;50.956;7.002;2023-03-01T08:25:03;19.40;;;12.97;;
5959;SDS011;3006;50.956;7.002;2023-03-01T08:27:31;15.00;;;11.30;;
5959;SDS011;3006;50.956;7.002;2023-03-01T08:30:00;15.73;;;11.70;;
5959;SDS011;3006;50.956;7.002;2023-03-01T08:32:28;21.03;;;12.83;;
5959;SDS011;3006;50.956;7.002;2023-03-01T08:34:56;15.63;;;10.80;;
5959;SDS011;3006;50.956;7.002;2023-03-01T08:37:24;17.53;;;12.07;;
5959;SDS011;3006;50.956;7.002;2023-03-01T08:39:54;15.00;;;11.70;;
5959;SDS011;3006;50.956;7.002;2023-03-01T08:42:22;16.90;;;12.83;;
5959;SDS011;3006;50.956;7.002;2023-03-01T08:44:50;19.47;;;11.80;;
5959;SDS011;3006;50.956;7.002;2023-03-01T08:47:18;22.53;;;11.10;;
5959;SDS011;3006;50.956;7.002;2023-03-01T08:49:46;15.80;;;10.80;;
5959;SDS011;3006;50.956;7.002;2023-03-01T08:52:16;16.83;;;11.00;;
5959;SDS011;3006;50.956;7.002;2023-03-01T08:54:44;15.73;;;10.10;;
5959;SDS011;3006;50.956;7.002;2023-03-01T08:57:15;15.77;;;10.73;;
5959;SDS011;3006;50.956;7.002;2023-03-01T08:59:44;17.83;;;11.03;;
5959;SDS011;3006;50.956;7.002;2023-03-01T09:02:12;15.40;;;11.60;;
5959;SDS011;3006;50.956;7.002;2023-03-01T09:04:42;13.97;;;10.30;;
5959;SDS011;3006;50.956;7.002;2023-03-01T09:07:10;17.80;;;11.60;;
5959;SDS011;3006;50.956;7.002;2023-03-01T09:09:39;16.23;;;10.43;;
5959;SDS011;3006;50.956;7.002;2023-03-01T09:12:07;14.33;;;10.30;;
5959;SDS011;3006;50.956;7.002;2023-03-01T09:14:36;16.13;;;10.80;;
5959;SDS011;3006;50.956;7.002;2023-03-01T09:17:05;16.73;;;10.87;;
5959;SDS011;3006;50.956;7.002;2023-03-01T09:19:33;14.53;;;10.53;;
5959;SDS011;3006;50.956;7.002;2023-03-01T09:22:02;18.10;;;10.47;;
5959;SDS011;3006;50.956;7.002;2023-03-01T09:24:30;15.53;;;10.40;;
5959;SDS011;3006;50.956;7.002;2023-03-01T09:26:58;13.40;;;9.90;;
5959;SDS011;3006;50.956;7.002;2023-03-01T09:29:27;20.20;;;11.23;;
5959;SDS011;3006;50.956;7.002;2023-03-01T09:31:57;13.73;;;10.57;;
5959;SDS011;3006;50.956;7.002;2023-03-01T09:34:25;14.80;;;10.53;;
5959;SDS011;3006;50.956;7.002;2023-03-01T09:36:53;16.97;;;10.50;;
5959;SDS011;3006;50.956;7.002;2023-03-01T09:39:21;22.73;;;10.00;;
5959;SDS011;3006;50.956;7.002;2023-03-01T09:41:52;13.80;;;10.93;;
5959;SDS011;3006;50.956;7.002;2023-03-01T09:44:29;14.50;;;10.20;;
5959;SDS011;3006;50.956;7.002;2023-03-01T09:47:04;13.43;;;9.07;;
5959;SDS011;3006;50.956;7.002;2023-03-01T09:49:37;16.90;;;10.73;;
5959;SDS011;3006;50.956;7.002;2023-03-01T09:52:12;14.60;;;9.70;;
5959;SDS011;3006;50.956;7.002;2023-03-01T09:54:49;13.83;;;9.93;;
5959;SDS011;3006;50.956;7.002;2023-03-01T09:57:26;13.10;;;10.00;;
5959;SDS011;3006;50.956;7.002;2023-03-01T10:00:03;16.33;;;10.93;;
5959;SDS011;3006;50.956;7.002;2023-03-01T10:02:45;18.43;;;10.20;;
5959;SDS011;3006;50.956;7.002;2023-03-01T10:05:34;13.03;;;9.60;;
5959;SDS011;3006;50.956;7.002;2023-03-01T10:08:22;13.60;;;10.50;;
5959;SDS011;3006;50.956;7.002;2023-03-01T10:10:59;19.20;;;10.63;;
5959;SDS011;3006;50.956;7.002;2023-03-01T10:13:29;17.57;;;10.70;;
5959;SDS011;3006;50.956;7.002;2023-03-01T10:16:16;16.93;;;10.33;;
5959;SDS011;3006;50.956;7.002;2023-03-01T10:18:51;18.03;;;10.97;;
5959;SDS011;3006;50.956;7.002;2023-03-01T10:21:22;14.43;;;10.60;;
5959;SDS011;3006;50.956;7.002;2023-03-01T10:23:51;16.87;;;11.23;;
5959;SDS011;3006;50.956;7.002;2023-03-01T10:26:24;15.93;;;10.70;;
5959;SDS011;3006;50.956;7.002;2023-03-01T10:29:04;16.23;;;10.03;;
5959;SDS011;3006;50.956;7.002;2023-03-01T10:31:38;14.77;;;10.60;;
5959;SDS011;3006;50.956;7.002;2023-03-01T10:34:12;20.37;;;10.00;;
5959;SDS011;3006;50.956;7.002;2023-03-01T10:36:43;14.97;;;10.50;;
5959;SDS011;3006;50.956;7.002;2023-03-01T10:39:20;14.50;;;10.37;;
5959;SDS011;3006;50.956;7.002;2023-03-01T10:41:54;17.50;;;11.33;;
5959;SDS011;3006;50.956;7.002;2023-03-01T10:44:37;22.43;;;11.73;;
5959;SDS011;3006;50.956;7.002;2023-03-01T10:47:12;13.00;;;9.80;;
5959;SDS011;3006;50.956;7.002;2023-03-01T10:49:53;13.00;;;9.77;;
5959;SDS011;3006;50.956;7.002;2023-03-01T10:52:31;16.00;;;10.27;;
5959;SDS011;3006;50.956;7.002;2023-03-01T10:55:03;14.53;;;10.70;;
5959;SDS011;3006;50.956;7.002;2023-03-01T10:57:43;26.23;;;19.23;;
5959;SDS011;3006;50.956;7.002;2023-03-01T11:00:19;19.70;;;13.40;;
5959;SDS011;3006;50.956;7.002;2023-03-01T11:02:50;15.67;;;11.13;;
5959;SDS011;3006;50.956;7.002;2023-03-01T11:05:31;18.90;;;10.90;;
5959;SDS011;3006;50.956;7.002;2023-03-01T11:08:02;15.43;;;10.80;;
5959;SDS011;3006;50.956;7.002;2023-03-01T11:10:32;14.43;;;11.27;;
5959;SDS011;3006;50.956;7.002;2023-03-01T11:13:08;16.53;;;10.30;;
5959;SDS011;3006;50.956;7.002;2023-03-01T11:15:41;16.20;;;10.73;;
5959;SDS011;3006;50.956;7.002;2023-03-01T11:18:20;18.10;;;11.40;;
5959;SDS011;3006;50.956;7.002;2023-03-01T11:21:08;24.17;;;10.83;;
5959;SDS011;3006;50.956;7.002;2023-03-01T11:23:37;17.43;;;11.53;;
5959;SDS011;3006;50.956;7.002;2023-03-01T11:26:07;21.90;;;11.23;;
5959;SDS011;3006;50.956;7.002;2023-03-01T11:28:39;18.63;;;11.27;;
5959;SDS011;3006;50.956;7.002;2023-03-01T11:31:10;14.20;;;10.80;;
5959;SDS011;3006;50.956;7.002;2023-03-01T11:33:41;39.97;;;21.30;;
5959;SDS011;3006;50.956;7.002;2023-03-01T11:36:19;15.47;;;10.43;;
5959;SDS011;3006;50.956;7.002;2023-03-01T11:38:54;13.10;;;10.00;;
5959;SDS011;3006;50.956;7.002;2023-03-01T11:41:23;25.27;;;10.23;;
5959;SDS011;3006;50.956;7.002;2023-03-01T11:43:58;15.20;;;10.53;;
5959;SDS011;3006;50.956;7.002;2023-03-01T11:46:33;14.53;;;10.37;;
5959;SDS011;3006;50.956;7.002;2023-03-01T11:49:26;15.10;;;10.73;;
5959;SDS011;3006;50.956;7.002;2023-03-01T11:52:21;14.07;;;9.63;;
5959;SDS011;3006;50.956;7.002;2023-03-01T11:54:59;20.73;;;10.70;;
5959;SDS011;3006;50.956;7.002;2023-03-01T11:57:53;13.80;;;10.77;;
5959;SDS011;3006;50.956;7.002;2023-03-01T12:00:47;18.30;;;11.63;;
5959;SDS011;3006;50.956;7.002;2023-03-01T12:03:29;13.57;;;9.93;;
5959;SDS011;3006;50.956;7.002;2023-03-01T12:09:04;12.83;;;9.83;;
5959;SDS011;3006;50.956;7.002;2023-03-01T12:11:51;14.57;;;10.17;;
5959;SDS011;3006;50.956;7.002;2023-03-01T12:14:42;17.60;;;11.50;;
5959;SDS011;3006;50.956;7.002;2023-03-01T12:17:35;14.00;;;9.80;;
5959;SDS011;3006;50.956;7.002;2023-03-01T12:20:19;15.00;;;9.57;;
5959;SDS011;3006;50.956;7.002;2023-03-01T12:22:57;14.03;;;9.00;;
5959;SDS011;3006;50.956;7.002;2023-03-01T12:25:48;15.70;;;10.90;;
5959;SDS011;3006;50.956;7.002;2023-03-01T12:28:26;16.13;;;10.10;;
5959;SDS011;3006;50.956;7.002;2023-03-01T12:34:19;22.37;;;13.00;;
5959;SDS011;3006;50.956;7.002;2023-03-01T12:37:10;17.77;;;10.83;;
5959;SDS011;3006;50.956;7.002;2023-03-01T12:39:51;15.10;;;10.77;;
5959;SDS011;3006;50.956;7.002;2023-03-01T12:42:30;15.90;;;10.37;;
5959;SDS011;3006;50.956;7.002;2023-03-01T12:45:16;10.73;;;8.53;;
5959;SDS011;3006;50.956;7.002;2023-03-01T12:48:13;11.90;;;9.17;;
5959;SDS011;3006;50.956;7.002;2023-03-01T12:50:55;12.43;;;8.80;;
5959;SDS011;3006;50.956;7.002;2023-03-01T12:53:28;12.13;;;9.43;;
5959;SDS011;3006;50.956;7.002;2023-03-01T12:55:59;12.03;;;8.67;;
5959;SDS011;3006;50.956;7.002;2023-03-01T12:58:31;15.90;;;10.10;;
5959;SDS011;3006;50.956;7.002;2023-03-01T13:01:21;11.97;;;9.80;;
5959;SDS011;3006;50.956;7.002;2023-03-01T13:04:05;25.13;;;9.23;;
5959;SDS011;3006;50.956;7.002;2023-03-01T13:06:40;11.90;;;8.90;;
5959;SDS011;3006;50.956;7.002;2023-03-01T13:09:19;12.90;;;9.33;;
5959;SDS011;3006;50.956;7.002;2023-03-01T13:11:50;16.83;;;9.93;;
5959;SDS011;3006;50.956;7.002;2023-03-01T13:14:39;20.90;;;9.07;;
5959;SDS011;3006;50.956;7.002;2023-03-01T13:17:29;13.73;;;10.10;;
5959;SDS011;3006;50.956;7.002;2023-03-01T13:19:59;12.73;;;8.20;;
5959;SDS011;3006;50.956;7.002;2023-03-01T13:22:29;12.87;;;9.00;;
5959;SDS011;3006;50.956;7.002;2023-03-01T13:25:14;15.17;;;10.30;;
5959;SDS011;3006;50.956;7.002;2023-03-01T13:27:44;12.67;;;9.50;;
5959;SDS011;3006;50.956;7.002;2023-03-01T13:39:27;14.23;;;9.67;;
5959;SDS011;3006;50.956;7.002;2023-03-01T13:41:58;15.20;;;9.50;;
5959;SDS011;3006;50.956;7.002;2023-03-01T13:44:30;13.53;;;9.27;;
5959;SDS011;3006;50.956;7.002;2023-03-01T13:47:03;11.77;;;9.07;;
5959;SDS011;3006;50.956;7.002;2023-03-01T13:49:41;21.27;;;10.03;;
5959;SDS011;3006;50.956;7.002;2023-03-01T13:52:23;16.70;;;10.77;;
5959;SDS011;3006;50.956;7.002;2023-03-01T13:55:10;12.10;;;9.43;;
5959;SDS011;3006;50.956;7.002;2023-03-01T13:57:44;11.90;;;8.20;;
5959;SDS011;3006;50.956;7.002;2023-03-01T14:00:30;10.90;;;8.83;;
5959;SDS011;3006;50.956;7.002;2023-03-01T14:03:04;13.17;;;9.47;;
5959;SDS011;3006;50.956;7.002;2023-03-01T14:05:42;14.90;;;8.97;;
5959;SDS011;3006;50.956;7.002;2023-03-01T14:08:19;12.67;;;8.93;;
5959;SDS011;3006;50.956;7.002;2023-03-01T14:13:46;14.73;;;7.67;;
5959;SDS011;3006;50.956;7.002;2023-03-01T14:16:35;10.03;;;7.83;;
5959;SDS011;3006;50.956;7.002;2023-03-01T14:19:17;11.63;;;7.20;;
5959;SDS011;3006;50.956;7.002;2023-03-01T14:21:59;13.83;;;8.10;;
5959;SDS011;3006;50.956;7.002;2023-03-01T14:24:32;9.87;;;7.47;;
5959;SDS011;3006;50.956;7.002;2023-03-01T14:27:09;9.77;;;8.00;;
5959;SDS011;3006;50.956;7.002;2023-03-01T14:29:39;10.37;;;7.20;;
5959;SDS011;3006;50.956;7.002;2023-03-01T14:32:11;18.70;;;13.97;;
5959;SDS011;3006;50.956;7.002;2023-03-01T14:34:47;9.67;;;8.40;;
5959;SDS011;3006;50.956;7.002;2023-03-01T14:37:18;15.67;;;8.67;;
5959;SDS011;3006;50.956;7.002;2023-03-01T14:39:48;14.83;;;9.90;;
5959;SDS011;3006;50.956;7.002;2023-03-01T14:42:16;12.77;;;8.93;;
5959;SDS011;3006;50.956;7.002;2023-03-01T14:44:47;21.80;;;9.27;;
5959;SDS011;3006;50.956;7.002;2023-03-01T14:47:19;10.33;;;8.80;;
5959;SDS011;3006;50.956;7.002;2023-03-01T14:49:56;12.30;;;9.60;;
5959;SDS011;3006;50.956;7.002;2023-03-01T14:52:29;14.60;;;9.80;;
5959;SDS011;3006;50.956;7.002;2023-03-01T14:55:02;14.50;;;9.37;;
5959;SDS011;3006;50.956;7.002;2023-03-01T14:57:33;17.87;;;10.30;;
5959;SDS011;3006;50.956;7.002;2023-03-01T15:00:05;17.10;;;11.20;;
5959;SDS011;3006;50.956;7.002;2023-03-01T15:02:35;15.60;;;10.67;;
5959;SDS011;3006;50.956;7.002;2023-03-01T15:05:07;15.90;;;9.30;;
5959;SDS011;3006;50.956;7.002;2023-03-01T15:07:37;14.27;;;9.77;;
5959;SDS011;3006;50.956;7.002;2023-03-01T15:10:14;16.17;;;11.30;;
5959;SDS011;3006;50.956;7.002;2023-03-01T15:12:46;33.33;;;20.13;;
5959;SDS011;3006;50.956;7.002;2023-03-01T15:15:31;18.70;;;10.27;;
5959;SDS011;3006;50.956;7.002;2023-03-01T15:18:03;13.60;;;8.10;;
5959;SDS011;3006;50.956;7.002;2023-03-01T15:20:35;12.67;;;8.40;;
5959;SDS011;3006;50.956;7.002;2023-03-01T15:23:03;15.23;;;9.20;;
5959;SDS011;3006;50.956;7.002;2023-03-01T15:25:32;11.93;;;9.30;;
5959;SDS011;3006;50.956;7.002;2023-03-01T15:28:02;15.33;;;10.40;;
5959;SDS011;3006;50.956;7.002;2023-03-01T15:30:32;14.97;;;10.47;;
5959;SDS011;3006;50.956;7.002;2023-03-01T15:33:17;12.63;;;8.83;;
5959;SDS011;3006;50.956;7.002;2023-03-01T15:35:57;18.13;;;9.50;;
5959;SDS011;3006;50.956;7.002;2023-03-01T15:38:27;18.07;;;9.90;;
5959;SDS011;3006;50.956;7.002;2023-03-01T15:40:59;13.30;;;9.00;;
5959;SDS011;3006;50.956;7.002;2023-03-01T15:43:43;18.40;;;11.37;;
5959;SDS011;3006;50.956;7.002;2023-03-01T15:46:15;18.40;;;10.00;;